Time;durP1;ratioP1;P1;durP2;ratioP2;P2;SDS_P1;SDS_P2;PMS_P1;PMS_P2;Temp;Humidity;BMP_temperature;BMP_pressure;BME280_temperature;BME280_humidity;BME280_pressure;Samples;Min_cycle;Max_cycle;Signal;HPM_P1;HPM_P2
2022/05/07 00:02:34;;;;;;;9.97;4.70;;;13.20;99.90;;;;;;10370200;28;20688;-71
2022/05/07 00:07:35;;;;;;;9.07;4.47;;;13.10;99.90;;;;;;10337470;28;20321;-70
2022/05/07 00:12:35;;;;;;;7.27;3.80;;;13.10;99.90;;;;;;10356468;28;20289;-70
2022/05/07 00:23:01;;;;;;;7.30;4.97;;;13.00;99.90;;;;;;10356890;28;20658;-72
2022/05/07 00:28:01;;;;;;;6.00;4.30;;;12.90;99.90;;;;;;10363583;28;20225;-70
2022/05/07 00:33:02;;;;;;;5.07;3.73;;;12.80;99.90;;;;;;10367686;28;20639;-72
2022/05/07 00:38:02;;;;;;;5.30;3.40;;;12.80;99.90;;;;;;10347044;28;20217;-71
2022/05/07 00:43:06;;;;;;;6.30;3.60;;;12.80;99.90;;;;;;10350735;28;20228;-74
2022/05/07 00:48:07;;;;;;;6.00;3.63;;;12.80;99.90;;;;;;10357383;28;20226;-71
2022/05/07 00:53:08;;;;;;;4.73;3.50;;;12.80;99.90;;;;;;10367784;28;20298;-71
2022/05/07 00:58:08;;;;;;;4.37;3.30;;;12.70;99.90;;;;;;10375323;28;20739;-71
2022/05/07 01:03:09;;;;;;;5.50;3.90;;;12.70;99.90;;;;;;10362916;28;20309;-70
2022/05/07 01:08:12;;;;;;;7.03;4.07;;;12.70;99.90;;;;;;10356134;28;20228;-71
2022/05/07 01:13:13;;;;;;;6.33;3.77;;;12.60;99.90;;;;;;10371447;28;20218;-71
2022/05/07 01:18:15;;;;;;;6.07;3.07;;;12.50;99.90;;;;;;10349439;28;20221;-71
2022/05/07 01:23:16;;;;;;;4.00;3.33;;;12.40;99.90;;;;;;10363382;28;20673;-70
2022/05/07 01:28:17;;;;;;;6.97;5.03;;;12.30;99.90;;;;;;10367823;28;20973;-71
2022/05/07 01:33:18;;;;;;;8.27;4.27;;;12.20;99.90;;;;;;10349189;28;20241;-70
2022/05/07 01:38:18;;;;;;;8.10;6.33;;;12.10;99.90;;;;;;10363518;28;20277;-71
2022/05/07 01:43:19;;;;;;;5.60;5.00;;;12.00;99.90;;;;;;10342625;28;20224;-72
2022/05/07 01:48:19;;;;;;;8.27;4.43;;;11.90;99.90;;;;;;10367197;28;20260;-72
2022/05/07 01:53:22;;;;;;;9.20;4.67;;;11.80;99.90;;;;;;10341474;28;20705;-72
2022/05/07 01:58:22;;;;;;;5.33;3.43;;;11.70;99.90;;;;;;10348157;28;20609;-71
2022/05/07 02:03:23;;;;;;;5.23;3.53;;;11.60;99.90;;;;;;10357566;28;20367;-71
2022/05/07 02:08:23;;;;;;;5.13;3.47;;;11.60;99.90;;;;;;10355765;28;20217;-72
2022/05/07 02:13:24;;;;;;;4.83;3.43;;;11.60;99.90;;;;;;10345589;28;20279;-71
2022/05/07 02:18:25;;;;;;;4.20;3.60;;;11.50;99.90;;;;;;10353200;28;20221;-70
2022/05/07 02:23:26;;;;;;;3.80;3.00;;;11.40;99.90;;;;;;10362428;28;20280;-72
2022/05/07 02:28:26;;;;;;;7.97;4.03;;;11.40;99.90;;;;;;10354954;28;20225;-71
2022/05/07 02:33:27;;;;;;;4.17;3.77;;;11.40;99.90;;;;;;10349467;28;20262;-71
2022/05/07 02:38:27;;;;;;;4.27;3.50;;;11.40;99.90;;;;;;10342505;28;20225;-71
2022/05/07 02:43:28;;;;;;;6.17;4.40;;;11.40;99.90;;;;;;10355409;28;20289;-71
2022/05/07 02:48:29;;;;;;;6.77;4.30;;;11.30;99.90;;;;;;10344548;28;20248;-73
2022/05/07 02:53:29;;;;;;;7.07;4.73;;;11.30;99.90;;;;;;10344741;28;20354;-71
2022/05/07 02:58:30;;;;;;;10.03;5.00;;;11.20;99.90;;;;;;10354236;28;20232;-71
2022/05/07 03:03:31;;;;;;;8.87;4.40;;;11.20;99.90;;;;;;10335398;28;20217;-71
2022/05/07 03:08:34;;;;;;;6.63;4.47;;;11.20;99.90;;;;;;10354796;28;20304;-71
2022/05/07 03:13:35;;;;;;;8.53;4.50;;;11.20;99.90;;;;;;10337031;28;20284;-71
2022/05/07 03:18:36;;;;;;;6.37;4.43;;;11.20;99.90;;;;;;10362578;28;20893;-71
2022/05/07 03:23:36;;;;;;;10.10;5.50;;;11.20;99.90;;;;;;10360121;28;20723;-71
2022/05/07 03:28:37;;;;;;;10.00;5.00;;;11.10;99.90;;;;;;10357695;28;20236;-71
2022/05/07 03:33:38;;;;;;;9.67;5.30;;;11.10;99.90;;;;;;10377282;28;20251;-70
2022/05/07 03:38:38;;;;;;;6.73;5.20;;;11.10;99.90;;;;;;10354572;28;20340;-72
2022/05/07 03:43:40;;;;;;;9.87;5.80;;;11.00;99.90;;;;;;10355592;28;20596;-70
2022/05/07 03:48:40;;;;;;;11.73;6.13;;;11.00;99.90;;;;;;10353938;28;20723;-72
2022/05/07 03:53:41;;;;;;;11.80;5.87;;;11.00;99.90;;;;;;10343704;28;20240;-70
2022/05/07 03:58:42;;;;;;;8.93;5.23;;;10.90;99.90;;;;;;10350721;28;20226;-70
2022/05/07 04:03:42;;;;;;;11.73;5.03;;;10.80;99.90;;;;;;10351545;28;20236;-71
2022/05/07 04:08:44;;;;;;;6.23;4.17;;;10.80;99.90;;;;;;10343277;28;20244;-70
2022/05/07 04:13:45;;;;;;;6.17;3.80;;;10.90;99.90;;;;;;10351992;28;20237;-71
2022/05/07 04:18:46;;;;;;;8.33;4.13;;;10.90;99.90;;;;;;10360705;28;20263;-71
2022/05/07 04:23:46;;;;;;;5.50;3.90;;;11.00;99.90;;;;;;10361356;28;20312;-70
2022/05/07 04:28:47;;;;;;;6.23;3.83;;;11.00;99.90;;;;;;10368978;28;20217;-72
2022/05/07 04:33:47;;;;;;;6.23;3.20;;;11.20;99.90;;;;;;10346029;28;20237;-71
2022/05/07 04:38:48;;;;;;;4.10;3.23;;;11.30;99.90;;;;;;10340830;28;20221;-71
2022/05/07 04:43:49;;;;;;;5.47;3.00;;;11.40;99.90;;;;;;10364617;28;20217;-70
2022/05/07 04:48:49;;;;;;;3.30;3.00;;;11.50;99.90;;;;;;10358368;28;20235;-71
2022/05/07 04:53:50;;;;;;;5.77;3.20;;;11.70;99.90;;;;;;10351554;28;20217;-71
2022/05/07 04:58:51;;;;;;;3.33;2.97;;;11.80;99.90;;;;;;10357718;28;20272;-72
2022/05/07 05:03:52;;;;;;;4.50;3.03;;;11.90;99.90;;;;;;10355996;28;20229;-72
2022/05/07 05:08:53;;;;;;;4.00;2.93;;;12.10;99.90;;;;;;10345034;28;20221;-71
2022/05/07 05:13:53;;;;;;;6.90;3.47;;;12.40;99.90;;;;;;10363112;28;20295;-70
2022/05/07 05:18:54;;;;;;;4.90;2.97;;;12.90;99.90;;;;;;10362658;28;20213;-71
2022/05/07 05:23:54;;;;;;;5.67;3.60;;;13.30;99.90;;;;;;10355061;28;20313;-69
2022/05/07 05:28:55;;;;;;;6.13;4.57;;;13.60;99.90;;;;;;10344776;28;20353;-70
2022/05/07 05:33:56;;;;;;;9.20;4.87;;;13.80;99.90;;;;;;10346556;28;20234;-70
2022/05/07 05:38:57;;;;;;;7.53;4.07;;;13.80;99.90;;;;;;10356932;28;20225;-70
2022/05/07 05:43:58;;;;;;;6.27;3.93;;;14.00;99.90;;;;;;10356481;28;20219;-68
2022/05/07 05:48:58;;;;;;;3.73;3.10;;;14.20;99.90;;;;;;10354095;28;20226;-70
2022/05/07 05:53:59;;;;;;;4.87;3.30;;;14.60;99.90;;;;;;10351378;28;20240;-70
2022/05/07 05:58:59;;;;;;;8.70;4.60;;;14.60;99.90;;;;;;10356241;28;20224;-71
2022/05/07 06:04:00;;;;;;;10.53;5.13;;;14.80;99.90;;;;;;10364277;28;20561;-71
2022/05/07 06:09:00;;;;;;;9.87;5.13;;;17.60;99.90;;;;;;10353594;28;20237;-70
2022/05/07 06:14:01;;;;;;;10.43;5.60;;;21.60;97.00;;;;;;10359122;28;20264;-70
2022/05/07 06:19:03;;;;;;;6.40;3.77;;;24.60;76.60;;;;;;10352075;28;20243;-72
2022/05/07 06:29:23;;;;;;;9.17;4.33;;;26.80;55.40;;;;;;10349668;28;20218;-70
2022/05/07 06:34:24;;;;;;;7.63;4.23;;;26.00;55.60;;;;;;10361583;28;20624;-72
2022/05/07 06:39:24;;;;;;;12.77;5.87;;;25.60;54.50;;;;;;10354879;28;20222;-72
2022/05/07 06:44:25;;;;;;;13.63;6.10;;;25.70;54.90;;;;;;10358398;28;20253;-72
2022/05/07 06:49:25;;;;;;;7.53;2.53;;;26.00;53.10;;;;;;10337906;28;20672;-72
2022/05/07 06:54:26;;;;;;;2.20;1.80;;;26.30;52.70;;;;;;10353142;28;20313;-71
2022/05/07 06:59:27;;;;;;;9.03;2.60;;;28.00;50.60;;;;;;10352969;28;20228;-71
2022/05/07 07:04:27;;;;;;;2.57;2.37;;;27.90;48.40;;;;;;10354355;28;20256;-71
2022/05/07 07:09:28;;;;;;;4.63;2.50;;;28.30;47.60;;;;;;10338951;28;20225;-70
2022/05/07 07:14:28;;;;;;;3.17;1.90;;;29.60;45.60;;;;;;10354060;28;20721;-71
2022/05/07 07:19:31;;;;;;;2.87;2.20;;;30.80;43.80;;;;;;10359910;28;20263;-72
2022/05/07 07:24:31;;;;;;;5.27;2.17;;;31.50;41.30;;;;;;10353822;28;20224;-72
2022/05/07 07:29:33;;;;;;;2.27;1.53;;;31.80;39.90;;;;;;10352319;28;20229;-72
2022/05/07 07:34:33;;;;;;;3.70;1.90;;;32.10;40.00;;;;;;10343583;28;20230;-69
2022/05/07 07:39:34;;;;;;;2.37;1.90;;;33.10;37.50;;;;;;10368667;28;20308;-70
2022/05/07 07:44:36;;;;;;;2.07;1.87;;;34.30;35.30;;;;;;10343860;28;20218;-72
2022/05/07 07:49:36;;;;;;;2.67;1.93;;;33.70;35.60;;;;;;10360062;28;20220;-70
2022/05/07 07:54:37;;;;;;;1.90;1.60;;;32.10;36.90;;;;;;10353506;28;20253;-72
2022/05/07 07:59:39;;;;;;;2.83;1.90;;;33.00;36.70;;;;;;10367900;28;20238;-72
2022/05/07 08:04:40;;;;;;;1.93;1.57;;;34.70;35.20;;;;;;10359891;28;20229;-71
2022/05/07 08:15:00;;;;;;;2.37;1.90;;;34.10;33.90;;;;;;10360962;28;20221;-72
2022/05/07 08:20:00;;;;;;;5.27;1.73;;;35.70;32.70;;;;;;10359972;28;20692;-72
2022/05/07 08:25:01;;;;;;;3.87;1.70;;;33.90;33.00;;;;;;10356906;28;20312;-71
2022/05/07 08:30:02;;;;;;;3.90;1.60;;;35.20;32.90;;;;;;10373384;28;20227;-73
2022/05/07 08:35:03;;;;;;;3.47;2.10;;;37.00;30.10;;;;;;10352385;28;20716;-70
2022/05/07 08:40:04;;;;;;;2.87;1.97;;;37.50;28.40;;;;;;10353577;28;20827;-73
2022/05/07 08:45:05;;;;;;;5.27;2.17;;;36.60;29.70;;;;;;10350363;28;20740;-72
2022/05/07 08:50:11;;;;;;;5.03;1.77;;;38.80;28.80;;;;;;10365556;28;20198;-71
2022/05/07 08:55:21;;;;;;;6.90;1.97;;;37.60;28.00;;;;;;10353464;28;20221;-71
2022/05/07 09:00:24;;;;;;;2.57;1.50;;;36.80;26.80;;;;;;10342833;28;20259;-71
2022/05/07 09:05:36;;;;;;;6.40;1.93;;;35.30;29.00;;;;;;10332770;28;20229;-69
2022/05/07 09:10:38;;;;;;;2.10;1.17;;;34.80;29.30;;;;;;10362507;28;20214;-70
2022/05/07 09:15:58;;;;;;;2.80;1.20;;;34.60;29.40;;;;;;10356054;28;20221;-70
2022/05/07 09:21:26;;;;;;;2.07;1.40;;;35.70;28.80;;;;;;10359912;28;20295;-70
2022/05/07 09:26:43;;;;;;;3.10;1.80;;;37.40;26.70;;;;;;10353329;28;20225;-71
2022/05/07 09:31:44;;;;;;;2.90;1.77;;;38.70;26.50;;;;;;10336522;28;20661;-73
2022/05/07 09:36:45;;;;;;;2.80;1.40;;;40.60;24.60;;;;;;10349223;28;20269;-70
2022/05/07 09:41:53;;;;;;;3.53;1.73;;;39.60;25.10;;;;;;10362383;28;20793;-71
2022/05/07 09:46:57;;;;;;;1.83;1.33;;;38.70;24.10;;;;;;10330386;28;20237;-71
2022/05/07 09:51:57;;;;;;;5.27;1.50;;;37.00;26.40;;;;;;10351919;28;20225;-70
2022/05/07 10:02:43;;;;;;;4.37;1.60;;;38.20;25.20;;;;;;10349909;28;20634;-69
2022/05/07 10:07:56;;;;;;;3.27;1.40;;;39.30;24.30;;;;;;10354284;28;20221;-70
2022/05/07 10:12:59;;;;;;;6.23;1.80;;;35.60;26.90;;;;;;10347359;28;20237;-71
2022/05/07 10:18:02;;;;;;;3.27;1.17;;;34.50;28.50;;;;;;10348200;28;20224;-72
2022/05/07 10:23:03;;;;;;;3.33;1.60;;;37.40;26.60;;;;;;10353303;28;20225;-71
2022/05/07 10:28:14;;;;;;;1.93;1.30;;;35.50;25.70;;;;;;10350885;28;20692;-71
2022/05/07 10:33:15;;;;;;;2.00;1.43;;;35.90;27.00;;;;;;10356716;28;20288;-71
2022/05/07 10:38:31;;;;;;;3.70;1.60;;;39.20;25.10;;;;;;10363089;28;20696;-72
2022/05/07 10:43:34;;;;;;;2.73;1.97;;;39.60;24.60;;;;;;10353549;28;20594;-71
2022/05/07 10:48:53;;;;;;;2.03;1.30;;;39.70;23.30;;;;;;10353016;28;20298;-72
2022/05/07 10:54:00;;;;;;;4.57;1.93;;;37.10;25.30;;;;;;10334560;28;20228;-71
2022/05/07 10:59:01;;;;;;;3.23;1.90;;;35.10;26.60;;;;;;10349276;28;20214;-71
2022/05/07 11:04:07;;;;;;;3.37;1.70;;;34.80;27.20;;;;;;10338772;28;20248;-71
2022/05/07 11:09:17;;;;;;;4.57;2.00;;;36.70;26.00;;;;;;10353398;28;20662;-70
2022/05/07 11:14:32;;;;;;;4.53;1.80;;;36.60;24.40;;;;;;10356911;28;20221;-71
2022/05/07 11:19:35;;;;;;;2.37;1.60;;;36.10;25.40;;;;;;10346337;28;20216;-72
2022/05/07 11:24:35;;;;;;;3.17;1.43;;;34.40;26.60;;;;;;10360025;28;20225;-72
2022/05/07 11:29:36;;;;;;;3.17;1.67;;;34.70;26.80;;;;;;10368090;28;20304;-72
2022/05/07 11:34:41;;;;;;;2.40;1.97;;;34.10;27.80;;;;;;10352004;28;20307;-71
2022/05/07 11:39:51;;;;;;;1.90;1.70;;;32.80;29.30;;;;;;10351266;28;20562;-72
2022/05/07 11:50:20;;;;;;;4.57;1.87;;;31.90;29.80;;;;;;10343928;28;20213;-72
2022/05/07 11:55:26;;;;;;;4.73;2.50;;;30.60;31.50;;;;;;10346079;28;20213;-72
2022/05/07 12:00:29;;;;;;;7.80;2.60;;;29.80;32.20;;;;;;10358267;28;20221;-72
2022/05/07 12:05:41;;;;;;;4.27;2.03;;;29.00;32.70;;;;;;10342600;28;20253;-72
2022/05/07 12:10:43;;;;;;;3.47;1.83;;;27.80;34.60;;;;;;10352097;28;20221;-71
2022/05/07 12:21:06;;;;;;;2.53;1.93;;;27.00;35.60;;;;;;10349921;28;20737;-72
2022/05/07 12:31:25;;;;;;;3.27;1.90;;;26.30;37.00;;;;;;10366081;28;20228;-71
2022/05/07 12:36:29;;;;;;;4.33;1.60;;;26.10;36.80;;;;;;10359616;28;20738;-71
2022/05/07 12:41:30;;;;;;;4.17;1.80;;;26.00;37.80;;;;;;10348663;28;20639;-71
2022/05/07 12:46:31;;;;;;;3.40;1.77;;;26.30;38.10;;;;;;10365221;28;20227;-71
2022/05/07 12:51:31;;;;;;;5.87;2.20;;;26.50;37.30;;;;;;10358059;28;20607;-70
2022/05/07 12:56:32;;;;;;;2.27;1.40;;;26.00;38.00;;;;;;10350833;28;20219;-72
2022/05/07 13:01:33;;;;;;;2.70;1.60;;;26.20;38.90;;;;;;10357354;28;20234;-71
2022/05/07 13:06:33;;;;;;;6.23;1.97;;;25.90;38.90;;;;;;10356437;28;20741;-71
2022/05/07 13:11:34;;;;;;;2.53;1.93;;;25.20;39.70;;;;;;10340363;28;20225;-70
2022/05/07 13:16:35;;;;;;;3.30;1.70;;;25.20;39.50;;;;;;10356234;28;20220;-71
2022/05/07 13:21:35;;;;;;;3.87;1.60;;;25.30;39.70;;;;;;10361009;28;20751;-71
2022/05/07 13:26:39;;;;;;;7.43;4.60;;;25.50;39.40;;;;;;10364288;28;20265;-71
2022/05/07 13:31:40;;;;;;;3.70;1.77;;;25.90;39.00;;;;;;10366571;28;20323;-72
2022/05/07 13:36:41;;;;;;;2.00;1.70;;;25.60;39.90;;;;;;10355551;28;20267;-70
2022/05/07 13:41:43;;;;;;;2.30;1.60;;;24.70;40.40;;;;;;10355156;28;20240;-72
2022/05/07 13:46:44;;;;;;;1.40;1.20;;;24.50;41.20;;;;;;10355862;28;20280;-71
2022/05/07 13:51:44;;;;;;;2.63;1.73;;;24.60;40.80;;;;;;10339523;28;20233;-72
2022/05/07 13:56:45;;;;;;;3.30;1.73;;;24.90;40.30;;;;;;10360444;28;20224;-71
2022/05/07 14:01:49;;;;;;;2.47;1.80;;;25.30;40.00;;;;;;10353684;28;20228;-72
2022/05/07 14:06:49;;;;;;;2.67;1.90;;;25.70;39.70;;;;;;10338607;28;20234;-71
2022/05/07 14:11:51;;;;;;;3.77;1.60;;;25.00;40.60;;;;;;10361221;28;20240;-72
2022/05/07 14:16:51;;;;;;;5.63;1.73;;;24.50;42.40;;;;;;10331142;28;20856;-71
2022/05/07 14:21:52;;;;;;;3.67;1.60;;;24.30;43.60;;;;;;10348494;28;20213;-71
2022/05/07 14:26:53;;;;;;;3.63;1.80;;;24.40;41.80;;;;;;10352180;28;20228;-72
2022/05/07 14:31:53;;;;;;;3.33;1.40;;;24.40;41.60;;;;;;10347623;28;20268;-71
2022/05/07 14:36:54;;;;;;;2.80;1.60;;;24.90;40.70;;;;;;10352771;28;20690;-71
2022/05/07 14:41:55;;;;;;;5.30;1.70;;;25.30;40.80;;;;;;10353673;28;20232;-72
2022/05/07 14:46:59;;;;;;;1.90;1.70;;;25.20;41.70;;;;;;10356925;28;20225;-71
2022/05/07 14:52:00;;;;;;;3.60;1.83;;;25.40;41.40;;;;;;10342733;28;20292;-71
2022/05/07 14:57:01;;;;;;;5.40;2.00;;;25.00;41.20;;;;;;10347498;28;20244;-72
2022/05/07 15:02:02;;;;;;;3.27;2.40;;;24.80;41.10;;;;;;10332860;28;20276;-71
2022/05/07 15:07:03;;;;;;;2.93;1.87;;;24.90;41.40;;;;;;10355844;28;20311;-70
2022/05/07 15:12:05;;;;;;;3.13;2.03;;;24.80;41.40;;;;;;10351753;28;20303;-71
2022/05/07 15:17:06;;;;;;;4.93;2.10;;;25.20;41.10;;;;;;10342429;28;20265;-71
2022/05/07 15:22:06;;;;;;;3.80;1.83;;;25.70;40.40;;;;;;10351436;28;20228;-71
2022/05/07 15:27:07;;;;;;;2.60;1.87;;;25.90;40.30;;;;;;10359478;28;20227;-70
2022/05/07 15:37:28;;;;;;;4.37;1.63;;;25.00;41.00;;;;;;10352423;28;20218;-71
2022/05/07 15:42:29;;;;;;;4.93;1.73;;;24.70;42.50;;;;;;10333906;28;20693;-71
2022/05/07 15:47:29;;;;;;;6.13;2.77;;;24.60;42.70;;;;;;10350982;28;20218;-71
2022/05/07 15:52:30;;;;;;;2.20;1.60;;;24.60;42.90;;;;;;10351612;28;20361;-71
2022/05/07 15:57:30;;;;;;;4.93;1.60;;;24.30;41.80;;;;;;10338812;28;20209;-70
2022/05/07 16:02:31;;;;;;;3.60;1.67;;;24.00;42.30;;;;;;10358732;28;20708;-71
2022/05/07 16:07:32;;;;;;;4.83;1.93;;;23.80;42.90;;;;;;10351295;28;20709;-71
2022/05/07 16:12:32;;;;;;;3.40;1.90;;;23.80;43.30;;;;;;10350338;28;20692;-71
2022/05/07 16:17:33;;;;;;;3.90;1.73;;;23.60;44.00;;;;;;10352084;28;20704;-71
2022/05/07 16:27:54;;;;;;;2.50;1.87;;;23.40;45.40;;;;;;10353752;28;20624;-72
2022/05/07 16:32:54;;;;;;;4.17;2.50;;;23.40;46.00;;;;;;10356275;28;20233;-70
2022/05/07 16:37:58;;;;;;;4.80;1.77;;;23.40;46.30;;;;;;10363339;28;20220;-71
2022/05/07 16:42:58;;;;;;;3.23;1.60;;;23.30;46.50;;;;;;10347597;28;20226;-71
2022/05/07 16:47:59;;;;;;;5.20;1.87;;;23.20;45.00;;;;;;10339953;28;20222;-71
2022/05/07 16:53:00;;;;;;;3.20;1.60;;;23.10;44.50;;;;;;10354299;28;20867;-70
2022/05/07 16:58:00;;;;;;;4.70;1.63;;;23.00;44.50;;;;;;10344643;28;20621;-71
2022/05/07 17:03:01;;;;;;;3.33;1.50;;;22.80;43.60;;;;;;10360855;28;20246;-71
2022/05/07 17:08:01;;;;;;;3.03;2.30;;;22.70;44.70;;;;;;10357136;28;20772;-71
2022/05/07 17:13:02;;;;;;;4.60;2.03;;;22.60;45.60;;;;;;10353808;28;20272;-71
2022/05/07 17:18:03;;;;;;;8.47;2.00;;;22.50;47.40;;;;;;10360476;28;20225;-72
2022/05/07 17:23:03;;;;;;;3.27;1.93;;;22.50;48.80;;;;;;10362207;28;20249;-71
2022/05/07 17:28:04;;;;;;;6.53;2.90;;;22.40;49.10;;;;;;10360418;28;20792;-71
2022/05/07 17:33:05;;;;;;;3.43;1.60;;;22.40;49.40;;;;;;10337011;28;20313;-71
2022/05/07 17:38:06;;;;;;;3.27;1.90;;;22.30;49.00;;;;;;10346744;28;20286;-71
2022/05/07 17:43:07;;;;;;;7.97;1.90;;;22.20;49.10;;;;;;10351701;28;20650;-70
2022/05/07 17:53:27;;;;;;;4.47;1.93;;;22.00;50.00;;;;;;10348641;28;20233;-71
2022/05/07 17:58:28;;;;;;;6.27;2.00;;;22.00;50.50;;;;;;10361943;28;20221;-71
2022/05/07 18:03:28;;;;;;;2.83;2.00;;;21.90;50.50;;;;;;10348335;28;20708;-70
2022/05/07 18:08:29;;;;;;;3.40;1.87;;;21.80;51.10;;;;;;10350251;28;20214;-70
2022/05/07 18:13:30;;;;;;;5.53;1.90;;;21.60;51.60;;;;;;10354928;28;20689;-71
2022/05/07 18:18:31;;;;;;;1.67;1.57;;;21.50;52.10;;;;;;10345661;28;20577;-71
2022/05/07 18:23:32;;;;;;;5.90;2.03;;;21.40;52.80;;;;;;10345901;28;20808;-71
2022/05/07 18:28:32;;;;;;;7.33;2.03;;;21.20;53.30;;;;;;10365703;28;20232;-72
2022/05/07 18:33:33;;;;;;;6.20;2.43;;;21.00;54.00;;;;;;10353590;28;20224;-71
2022/05/07 18:43:53;;;;;;;2.67;2.10;;;20.70;55.60;;;;;;10361541;28;20574;-71
2022/05/07 18:48:53;;;;;;;2.47;2.27;;;20.60;56.50;;;;;;10347390;28;20222;-71
2022/05/07 18:53:54;;;;;;;6.60;2.77;;;20.40;57.30;;;;;;10351002;28;20315;-71
2022/05/07 18:58:56;;;;;;;4.53;2.77;;;20.30;57.50;;;;;;10350109;28;20925;-70
2022/05/07 19:03:57;;;;;;;3.63;2.60;;;20.10;57.90;;;;;;10360554;28;20244;-71
2022/05/07 19:08:58;;;;;;;3.67;2.57;;;20.00;58.20;;;;;;10349941;28;20331;-71
2022/05/07 19:14:04;;;;;;;5.07;2.73;;;19.80;58.20;;;;;;10352255;28;20234;-71
2022/05/07 19:19:06;;;;;;;4.70;2.50;;;19.70;58.40;;;;;;10352646;28;20297;-71
2022/05/07 19:24:06;;;;;;;4.17;2.37;;;19.60;58.90;;;;;;10335662;28;20276;-71
2022/05/07 19:29:07;;;;;;;4.87;2.50;;;19.50;59.50;;;;;;10356042;28;20256;-70
2022/05/07 19:34:07;;;;;;;5.23;2.47;;;19.40;60.10;;;;;;10348604;28;20687;-71
2022/05/07 19:39:08;;;;;;;6.97;3.07;;;19.30;60.50;;;;;;10352588;28;20799;-71
2022/05/07 19:44:09;;;;;;;6.53;2.80;;;19.20;61.10;;;;;;10347881;28;20352;-71
2022/05/07 19:49:09;;;;;;;3.73;3.00;;;19.10;61.70;;;;;;10352568;28;20229;-71
2022/05/07 19:54:10;;;;;;;6.47;3.13;;;19.10;62.00;;;;;;10348714;28;20255;-71
2022/05/07 19:59:11;;;;;;;11.30;3.83;;;19.10;62.50;;;;;;10365675;28;20224;-70
2022/05/07 20:04:11;;;;;;;5.07;3.50;;;19.20;63.10;;;;;;10352542;28;20265;-71
2022/05/07 20:09:12;;;;;;;3.53;3.23;;;19.10;62.80;;;;;;10347941;28;20825;-71
2022/05/07 20:14:12;;;;;;;6.40;3.37;;;19.00;63.50;;;;;;10351320;28;20228;-71
2022/05/07 20:19:16;;;;;;;7.57;3.40;;;18.90;64.70;;;;;;10347003;28;20228;-70
2022/05/07 20:24:22;;;;;;;10.07;3.90;;;18.80;65.60;;;;;;10343892;28;20318;-70
2022/05/07 20:29:23;;;;;;;6.27;3.80;;;18.80;66.30;;;;;;10340147;28;20640;-70
2022/05/07 20:34:24;;;;;;;5.57;3.53;;;18.80;66.90;;;;;;10324849;28;20283;-71
2022/05/07 20:39:25;;;;;;;4.23;2.93;;;18.70;67.30;;;;;;10344822;28;20234;-71
2022/05/07 20:49:45;;;;;;;7.00;3.63;;;18.60;69.00;;;;;;10352996;28;20304;-71
2022/05/07 20:54:46;;;;;;;5.27;3.50;;;18.50;70.00;;;;;;10361129;28;20749;-71
2022/05/07 20:59:46;;;;;;;7.03;4.33;;;18.40;70.80;;;;;;10366589;28;20220;-71
2022/05/07 21:04:47;;;;;;;3.87;3.40;;;18.30;71.60;;;;;;10367598;28;20317;-71
2022/05/07 21:09:50;;;;;;;3.97;3.40;;;18.30;72.20;;;;;;10350938;28;20237;-73
2022/05/07 21:14:51;;;;;;;5.23;3.53;;;18.20;72.70;;;;;;10364977;28;20271;-71
2022/05/07 21:19:51;;;;;;;7.67;3.23;;;18.10;73.40;;;;;;10347594;28;20351;-71
2022/05/07 21:30:13;;;;;;;6.40;3.50;;;17.90;75.60;;;;;;10366447;28;20216;-71
2022/05/07 21:35:20;;;;;;;4.47;3.93;;;17.80;77.10;;;;;;10353696;28;20221;-70
2022/05/07 21:40:20;;;;;;;5.30;3.90;;;17.60;78.30;;;;;;10355951;28;20244;-72
2022/05/07 21:45:24;;;;;;;4.93;4.10;;;17.50;79.50;;;;;;10359692;28;20251;-71
2022/05/07 21:55:29;;;;;;;5.73;4.20;;;17.30;81.80;;;;;;10356616;28;20263;-71
2022/05/07 22:00:30;;;;;;;5.70;3.90;;;17.20;83.40;;;;;;10349997;28;20590;-72
2022/05/07 22:05:31;;;;;;;6.50;4.83;;;17.10;84.50;;;;;;10359511;28;20276;-72
2022/05/07 22:10:31;;;;;;;5.83;4.40;;;17.00;85.80;;;;;;10358472;28;20224;-72
2022/05/07 22:15:33;;;;;;;5.03;4.57;;;16.90;86.50;;;;;;10356213;28;20705;-72
2022/05/07 22:20:34;;;;;;;7.07;4.87;;;16.80;87.30;;;;;;10346703;28;20224;-72
2022/05/07 22:25:39;;;;;;;5.23;4.70;;;16.80;88.00;;;;;;10365022;28;20262;-71
2022/05/07 22:30:40;;;;;;;6.27;5.07;;;16.70;88.80;;;;;;10338546;28;20228;-71
2022/05/07 22:35:41;;;;;;;7.53;5.07;;;16.70;89.90;;;;;;10356144;28;20240;-71
2022/05/07 22:40:41;;;;;;;9.43;5.53;;;16.60;90.40;;;;;;10348164;28;20653;-71
2022/05/07 22:45:42;;;;;;;6.97;4.93;;;16.60;91.10;;;;;;10337661;28;20250;-72
2022/05/07 22:50:43;;;;;;;7.47;5.13;;;16.50;91.90;;;;;;10354577;28;20225;-71
2022/05/07 22:55:43;;;;;;;6.63;5.20;;;16.40;92.70;;;;;;10354631;28;20225;-71
2022/05/07 23:00:44;;;;;;;5.50;4.90;;;16.40;93.80;;;;;;10355342;28;20294;-72
2022/05/07 23:05:45;;;;;;;5.63;5.00;;;16.30;94.50;;;;;;10354332;28;20220;-71
2022/05/07 23:10:45;;;;;;;8.23;5.77;;;16.20;95.50;;;;;;10358424;28;20307;-71
2022/05/07 23:15:46;;;;;;;9.23;6.03;;;16.10;96.50;;;;;;10352255;28;20239;-71
2022/05/07 23:20:47;;;;;;;6.07;5.47;;;16.10;97.60;;;;;;10353186;28;20224;-71
2022/05/07 23:25:48;;;;;;;6.23;5.40;;;16.00;98.70;;;;;;10343956;28;20928;-71
2022/05/07 23:30:48;;;;;;;6.60;5.20;;;15.90;99.90;;;;;;10350184;28;20219;-71
2022/05/07 23:35:49;;;;;;;6.87;5.33;;;15.90;99.90;;;;;;10353741;28;20262;-71
2022/05/07 23:40:50;;;;;;;8.20;5.57;;;15.80;99.90;;;;;;10354000;28;20230;-71
2022/05/07 23:45:51;;;;;;;7.13;5.60;;;15.70;99.90;;;;;;10350954;28;20714;-71
2022/05/07 23:50:51;;;;;;;8.30;6.00;;;15.70;99.90;;;;;;10353197;28;20212;-71
2022/05/07 23:55:53;;;;;;;7.40;6.27;;;15.60;99.90;;;;;;10351661;28;20232;-71
